Celsius Malaga — V7QT5 — position and weather

sailwx.info

Track history (hours):
 
Tides and Currents Weather Stations Pressure Air Temp Water Temp Dewpoint Dewpoint Depression Visibility Wind Speed Wind Dir Waves Ship Positions

Celsius Malaga

Last reported at 2017-Aug-17 02:16 UTC. Time now 2017-Aug-20 22:47 UTC.
Position N 09°37' W 079°46'.

Length 147 m; draft 5.8 m.

MMSI: 538003434.

Date/timePositionNaut miles runAvg speedWind from/ knotsBaromVisibWave heightAir tempDewpointWater temp
2017-Aug-17 02:16N 09°37' W 079°46'414.3
2017-Aug-17 02:00N 09°34' W 079°48'714.6
2017-Aug-17 01:30N 09°28' W 079°53'611.7
2017-Aug-17 01:00N 09°23' W 079°55'1 1.3
2017-Aug-17 00:30N 09°23' W 079°56'0 0.0
2017-Aug-17 00:00N 09°23' W 079°56'0 0.0
2017-Aug-16 23:30N 09°23' W 079°56'0 0.0
2017-Aug-16 23:00N 09°23' W 079°56'0 0.1
2017-Aug-16 22:30N 09°23' W 079°56'0 0.0
2017-Aug-16 22:00N 09°23' W 079°56'0 0.0
2017-Aug-16 21:30N 09°23' W 079°56'0 0.0
2017-Aug-16 21:00N 09°23' W 079°56'0 0.0
2017-Aug-16 20:30N 09°23' W 079°56'0 0.0
2017-Aug-16 20:00N 09°23' W 079°56'0 0.0
2017-Aug-16 19:30N 09°23' W 079°56'0 0.0
2017-Aug-16 19:00N 09°23' W 079°56'0 0.1
2017-Aug-16 18:30N 09°23' W 079°56'0 0.0
2017-Aug-16 18:00N 09°23' W 079°56'0 0.1
2017-Aug-16 17:30N 09°23' W 079°56'0 0.0
2017-Aug-16 17:00N 09°23' W 079°56'0 0.0
2017-Aug-16 16:30N 09°23' W 079°56'0 0.0
2017-Aug-16 16:00N 09°23' W 079°56'0 0.0
2017-Aug-16 15:30N 09°23' W 079°56'0 0.0
2017-Aug-16 15:00N 09°23' W 079°56'0 0.0
2017-Aug-16 14:30N 09°23' W 079°56'0 0.0
2017-Aug-16 14:00N 09°23' W 079°56'0 0.1
2017-Aug-16 13:30N 09°23' W 079°56'0 0.1
2017-Aug-16 13:00N 09°23' W 079°56'0 0.0
2017-Aug-16 12:30N 09°23' W 079°56'0 0.0
2017-Aug-16 12:00N 09°23' W 079°56'0 0.0
2017-Aug-16 11:30N 09°23' W 079°56'0 0.1
2017-Aug-16 11:00N 09°23' W 079°56'0 1.0
2017-Aug-16 10:30N 09°22' W 079°56'3 6.1
2017-Aug-16 10:00N 09°19' W 079°55'3 5.2
2017-Aug-16 09:30N 09°17' W 079°55'0 0.6
2017-Aug-16 09:00N 09°16' W 079°55'0 0.5
2017-Aug-16 08:30N 09°16' W 079°55'1 2.1
2017-Aug-16 08:00N 09°15' W 079°55'4 7.2
2017-Aug-16 07:30N 09°12' W 079°54'611.0
2017-Aug-16 07:00N 09°09' W 079°49'6 9.9
2017-Aug-16 06:26N 09°07' W 079°43'7 8.9
2017-Aug-16 05:36N 09°02' W 079°38'1 5.0
2017-Aug-16 05:19N 09°01' W 079°37'0 0.8
2017-Aug-16 04:57N 09°01' W 079°37'6 2.2
2017-Aug-16 02:18N 08°56' W 079°33'  
Track history (hours):
 
Tides and Currents Weather Stations Pressure Air Temp Water Temp Dewpoint Dewpoint Depression Visibility Wind Speed Wind Dir Waves Ship Positions

Celsius Malaga

Last reported at 2017-Aug-17 02:16 UTC. Time now 2017-Aug-20 22:47 UTC.
Position N 09°37' W 079°46'.

Length 147 m; draft 5.8 m.

MMSI: 538003434.

Date/timePositionNaut miles runAvg speedWind from/ knotsBaromVisibWave heightAir tempDewpointWater temp
2017-Aug-17 02:16N 09°37' W 079°46'414.3
2017-Aug-17 02:00N 09°34' W 079°48'714.6
2017-Aug-17 01:30N 09°28' W 079°53'611.7
2017-Aug-17 01:00N 09°23' W 079°55'1 1.3
2017-Aug-17 00:30N 09°23' W 079°56'0 0.0
2017-Aug-17 00:00N 09°23' W 079°56'0 0.0
2017-Aug-16 23:30N 09°23' W 079°56'0 0.0
2017-Aug-16 23:00N 09°23' W 079°56'0 0.1
2017-Aug-16 22:30N 09°23' W 079°56'0 0.0
2017-Aug-16 22:00N 09°23' W 079°56'0 0.0
2017-Aug-16 21:30N 09°23' W 079°56'0 0.0
2017-Aug-16 21:00N 09°23' W 079°56'0 0.0
2017-Aug-16 20:30N 09°23' W 079°56'0 0.0
2017-Aug-16 20:00N 09°23' W 079°56'0 0.0
2017-Aug-16 19:30N 09°23' W 079°56'0 0.0
2017-Aug-16 19:00N 09°23' W 079°56'0 0.1
2017-Aug-16 18:30N 09°23' W 079°56'0 0.0
2017-Aug-16 18:00N 09°23' W 079°56'0 0.1
2017-Aug-16 17:30N 09°23' W 079°56'0 0.0
2017-Aug-16 17:00N 09°23' W 079°56'0 0.0
2017-Aug-16 16:30N 09°23' W 079°56'0 0.0
2017-Aug-16 16:00N 09°23' W 079°56'0 0.0
2017-Aug-16 15:30N 09°23' W 079°56'0 0.0
2017-Aug-16 15:00N 09°23' W 079°56'0 0.0
2017-Aug-16 14:30N 09°23' W 079°56'0 0.0
2017-Aug-16 14:00N 09°23' W 079°56'0 0.1
2017-Aug-16 13:30N 09°23' W 079°56'0 0.1
2017-Aug-16 13:00N 09°23' W 079°56'0 0.0
2017-Aug-16 12:30N 09°23' W 079°56'0 0.0
2017-Aug-16 12:00N 09°23' W 079°56'0 0.0
2017-Aug-16 11:30N 09°23' W 079°56'0 0.1
2017-Aug-16 11:00N 09°23' W 079°56'0 1.0
2017-Aug-16 10:30N 09°22' W 079°56'3 6.1
2017-Aug-16 10:00N 09°19' W 079°55'3 5.2
2017-Aug-16 09:30N 09°17' W 079°55'0 0.6
2017-Aug-16 09:00N 09°16' W 079°55'0 0.5
2017-Aug-16 08:30N 09°16' W 079°55'1 2.1
2017-Aug-16 08:00N 09°15' W 079°55'4 7.2
2017-Aug-16 07:30N 09°12' W 079°54'611.0
2017-Aug-16 07:00N 09°09' W 079°49'6 9.9
2017-Aug-16 06:26N 09°07' W 079°43'7 8.9
2017-Aug-16 05:36N 09°02' W 079°38'1 5.0
2017-Aug-16 05:19N 09°01' W 079°37'0 0.8
2017-Aug-16 04:57N 09°01' W 079°37'6 2.2
2017-Aug-16 02:18N 08°56' W 079°33'  

Dump ship's entire track history